createdAt,value
2022-11-03T00:02:11.083Z,98910.38
2022-11-03T00:04:39.177Z,98900.00
2022-11-03T00:07:09.541Z,98900.09
2022-11-03T00:09:39.112Z,98902.59
2022-11-03T00:12:08.188Z,98909.72
2022-11-03T00:14:36.217Z,98902.44
2022-11-03T00:17:04.456Z,98898.34
2022-11-03T00:19:32.450Z,98896.13
2022-11-03T00:22:00.561Z,98900.41
2022-11-03T00:24:28.568Z,98891.38
2022-11-03T00:27:00.094Z,98897.97
2022-11-03T00:29:28.129Z,98892.97
2022-11-03T00:31:56.125Z,98891.63
2022-11-03T00:34:24.236Z,98889.41
2022-11-03T00:36:52.274Z,98890.78
2022-11-03T00:39:20.426Z,98889.66
2022-11-03T00:41:53.545Z,98903.47
2022-11-03T00:44:22.908Z,98893.47
2022-11-03T00:46:50.995Z,98892.16
2022-11-03T00:49:18.950Z,98895.03
2022-11-03T00:51:47.006Z,98898.84
2022-11-03T00:54:14.972Z,98891.91
2022-11-03T00:56:44.225Z,98892.75
2022-11-03T00:59:12.336Z,98880.63
2022-11-03T01:01:46.606Z,98884.78
2022-11-03T01:04:33.723Z,98873.19
2022-11-03T01:07:01.936Z,98877.00
2022-11-03T01:09:30.955Z,98871.28
2022-11-03T01:11:59.968Z,98867.78
2022-11-03T01:14:28.964Z,98869.34
2022-11-03T01:16:58.409Z,98866.03
2022-11-03T01:19:26.793Z,98862.59
2022-11-03T01:21:54.837Z,98853.06
2022-11-03T01:24:22.940Z,98844.97
2022-11-03T01:26:51.133Z,98838.00
2022-11-03T01:29:19.312Z,98836.38
2022-11-03T01:31:47.425Z,98828.97
2022-11-03T01:34:17.312Z,98821.75
2022-11-03T01:36:45.733Z,98825.28
2022-11-03T01:39:14.232Z,98821.22
2022-11-03T01:41:43.003Z,98831.53
2022-11-03T01:44:29.729Z,98841.97
2022-11-03T01:47:02.486Z,98837.66
2022-11-03T01:49:34.521Z,98832.47
2022-11-03T01:52:04.530Z,98832.88
2022-11-03T01:54:32.865Z,98824.09
2022-11-03T01:57:01.745Z,98819.81
2022-11-03T01:59:29.889Z,98824.59
2022-11-03T02:01:57.971Z,98827.09
2022-11-03T02:04:30.638Z,98820.41
2022-11-03T02:07:03.981Z,98819.88
2022-11-03T02:09:32.160Z,98819.91
2022-11-03T02:12:09.084Z,98817.13
2022-11-03T02:14:38.650Z,98812.66
2022-11-03T02:17:08.261Z,98806.44
2022-11-03T02:19:38.903Z,98809.63
2022-11-03T02:22:15.913Z,98803.81
2022-11-03T02:24:53.981Z,98792.94
2022-11-03T02:27:24.140Z,98799.13
2022-11-03T02:29:52.254Z,98788.22
2022-11-03T02:32:26.258Z,98782.47
2022-11-03T02:34:57.086Z,98772.16
2022-11-03T02:37:28.151Z,98778.00
2022-11-03T02:39:59.821Z,98776.03
2022-11-03T02:42:31.776Z,98765.19
2022-11-03T02:45:01.791Z,98756.84
2022-11-03T02:47:31.364Z,98734.41
2022-11-03T02:49:59.375Z,98750.44
2022-11-03T02:52:37.872Z,98743.63
2022-11-03T02:55:08.797Z,98737.84
2022-11-03T02:57:41.585Z,98725.38
2022-11-03T03:00:12.418Z,98725.47
2022-11-03T03:02:45.069Z,98712.66
2022-11-03T03:05:14.485Z,98714.00
2022-11-03T03:07:44.410Z,98706.34
2022-11-03T03:10:15.682Z,98708.66
2022-11-03T03:12:50.214Z,98709.13
2022-11-03T03:15:19.584Z,98706.84
2022-11-03T03:17:51.806Z,98711.69
2022-11-03T03:20:21.962Z,98703.50
2022-11-03T03:22:52.611Z,98706.28
2022-11-03T03:25:23.939Z,98703.16
2022-11-03T03:27:56.606Z,98706.66
2022-11-03T03:30:24.751Z,98695.03
2022-11-03T03:32:53.491Z,98685.09
2022-11-03T03:35:24.787Z,98687.13
2022-11-03T03:37:54.351Z,98693.19
2022-11-03T03:40:24.141Z,98686.06
2022-11-03T03:42:54.110Z,98683.19
2022-11-03T03:45:22.374Z,98682.69
2022-11-03T03:47:54.906Z,98677.94
2022-11-03T03:50:27.405Z,98675.84
2022-11-03T03:52:56.350Z,98666.06
2022-11-03T03:55:27.640Z,98664.44
2022-11-03T03:57:59.519Z,98669.69
2022-11-03T04:00:28.507Z,98655.19
2022-11-03T04:02:57.896Z,98650.03
2022-11-03T04:05:25.979Z,98644.81
2022-11-03T04:07:53.957Z,98649.69
2022-11-03T04:10:23.130Z,98647.03
2022-11-03T04:13:09.262Z,98648.44
2022-11-03T04:15:58.622Z,98647.63
2022-11-03T04:18:44.223Z,98647.53
2022-11-03T04:21:31.177Z,98633.22
2022-11-03T04:24:00.280Z,98635.78
2022-11-03T04:26:29.085Z,98624.91
2022-11-03T04:28:58.179Z,98628.16
2022-11-03T04:31:29.442Z,98632.94
2022-11-03T04:33:57.558Z,98624.81
2022-11-03T04:36:26.175Z,98629.44
2022-11-03T04:38:54.289Z,98630.91
2022-11-03T04:41:23.832Z,98628.06
2022-11-03T04:43:52.352Z,98620.56
2022-11-03T04:46:24.929Z,98613.28
2022-11-03T04:48:55.233Z,98608.44
2022-11-03T04:51:24.860Z,98610.25
2022-11-03T04:53:55.172Z,98609.88
2022-11-03T04:56:24.565Z,98612.47
2022-11-03T04:58:53.262Z,98605.09
2022-11-03T05:01:24.395Z,98605.56
2022-11-03T05:03:53.692Z,98601.66
2022-11-03T05:06:23.925Z,98602.22
2022-11-03T05:08:53.445Z,98594.22
2022-11-03T05:11:25.701Z,98585.13
2022-11-03T05:13:54.177Z,98581.56
2022-11-03T05:16:24.581Z,98582.13
2022-11-03T05:18:52.862Z,98578.53
2022-11-03T05:21:22.923Z,98579.25
2022-11-03T05:23:54.107Z,98570.88
2022-11-03T05:26:25.449Z,98568.00
2022-11-03T05:28:56.437Z,98567.03
2022-11-03T05:31:25.434Z,98561.72
2022-11-03T05:33:58.280Z,98552.81
2022-11-03T05:36:27.174Z,98560.69
2022-11-03T05:38:59.943Z,98560.06
2022-11-03T05:41:29.709Z,98558.66
2022-11-03T05:43:59.548Z,98559.50
2022-11-03T05:46:28.751Z,98552.38
2022-11-03T05:48:57.314Z,98548.03
2022-11-03T05:54:23.513Z,98545.47
2022-11-03T05:56:51.578Z,98542.34
2022-11-03T05:59:23.906Z,98542.78
2022-11-03T06:01:52.731Z,98537.25
2022-11-03T06:04:22.853Z,98534.94
2022-11-03T06:06:53.661Z,98537.00
2022-11-03T06:09:25.514Z,98535.13
2022-11-03T06:11:55.054Z,98533.94
2022-11-03T06:14:24.798Z,98527.28
2022-11-03T06:16:53.804Z,98515.06
2022-11-03T06:19:23.338Z,98503.72
2022-11-03T06:21:52.627Z,98501.69
2022-11-03T06:24:22.243Z,98501.69
2022-11-03T06:26:52.640Z,98496.06
2022-11-03T06:29:21.425Z,98521.91
2022-11-03T06:31:50.740Z,98517.22
2022-11-03T06:34:27.038Z,98521.47
2022-11-03T06:36:57.442Z,98526.44
2022-11-03T06:39:25.749Z,98529.28
2022-11-03T06:41:55.160Z,98526.22
2022-11-03T06:44:24.885Z,98530.75
2022-11-03T06:46:53.093Z,98529.66
2022-11-03T06:49:30.407Z,98531.88
2022-11-03T06:52:00.127Z,98523.66
2022-11-03T06:54:28.206Z,98520.94
2022-11-03T06:56:57.664Z,98508.84
2022-11-03T06:59:25.690Z,98506.19
2022-11-03T07:01:55.524Z,98499.88
2022-11-03T07:04:24.705Z,98490.81
2022-11-03T07:06:53.758Z,98482.78
2022-11-03T07:09:25.951Z,98481.22
2022-11-03T07:11:54.844Z,98473.88
2022-11-03T07:14:25.846Z,98457.13
2022-11-03T07:16:55.457Z,98458.06
2022-11-03T07:19:25.885Z,98451.88
2022-11-03T07:21:55.115Z,98458.47
2022-11-03T07:24:24.996Z,98446.72
2022-11-03T07:26:55.762Z,98450.91
2022-11-03T07:29:27.940Z,98440.19
2022-11-03T07:31:56.221Z,98424.06
2022-11-03T07:34:26.296Z,98433.31
2022-11-03T07:36:56.141Z,98415.34
2022-11-03T07:39:24.551Z,98401.22
2022-11-03T07:41:52.557Z,98401.13
2022-11-03T07:44:21.622Z,98392.16
2022-11-03T07:46:51.577Z,98384.91
2022-11-03T07:49:25.598Z,98387.19
2022-11-03T07:51:56.773Z,98381.03
2022-11-03T07:54:26.963Z,98375.41
2022-11-03T07:56:57.104Z,98374.66
2022-11-03T07:59:27.820Z,98373.66
2022-11-03T08:01:58.516Z,98373.56
2022-11-03T08:04:28.413Z,98380.13
2022-11-03T08:06:56.435Z,98379.72
2022-11-03T08:09:24.547Z,98382.75
2022-11-03T08:11:52.562Z,98370.59
2022-11-03T08:14:20.588Z,98368.03
2022-11-03T08:16:48.557Z,98350.97
2022-11-03T08:19:17.899Z,98338.69
2022-11-03T08:21:45.875Z,98328.72
2022-11-03T08:24:13.886Z,98329.66
2022-11-03T08:26:41.858Z,98323.38
2022-11-03T08:29:09.977Z,98323.53
2022-11-03T08:31:38.039Z,98315.56
2022-11-03T08:34:06.076Z,98304.81
2022-11-03T08:36:35.412Z,98297.13
2022-11-03T08:39:03.394Z,98288.97
2022-11-03T08:41:31.871Z,98284.16
2022-11-03T08:44:00.008Z,98274.28
2022-11-03T08:46:28.431Z,98265.28
2022-11-03T08:48:56.776Z,98273.41
2022-11-03T08:51:25.299Z,98270.59
2022-11-03T08:53:55.122Z,98273.72
2022-11-03T08:56:23.524Z,98270.00
2022-11-03T08:58:51.946Z,98256.09
2022-11-03T09:01:20.244Z,98256.16
2022-11-03T09:03:48.639Z,98239.25
2022-11-03T09:06:17.032Z,98243.34
2022-11-03T09:11:37.537Z,98217.66
2022-11-03T09:14:05.513Z,98213.69
2022-11-03T09:16:33.569Z,98206.47
2022-11-03T09:19:01.555Z,98196.56
2022-11-03T09:21:29.528Z,98204.13
2022-11-03T09:23:59.405Z,98208.75
2022-11-03T09:26:27.469Z,98202.53
2022-11-03T09:28:56.820Z,98189.06
2022-11-03T09:31:28.470Z,98194.16
2022-11-03T09:33:56.575Z,98184.19
2022-11-03T09:36:24.575Z,98188.38
2022-11-03T09:38:52.552Z,98184.81
2022-11-03T09:41:27.778Z,98182.50
2022-11-03T09:44:04.737Z,98171.50
2022-11-03T09:46:32.875Z,98166.72
2022-11-03T09:49:00.835Z,98157.72
2022-11-03T09:51:29.318Z,98150.97
2022-11-03T09:53:58.638Z,98144.09
2022-11-03T09:56:27.171Z,98141.91
2022-11-03T09:58:55.151Z,98151.66
2022-11-03T10:01:24.902Z,98154.00
2022-11-03T10:03:53.178Z,98143.22
2022-11-03T10:06:21.353Z,98143.59
2022-11-03T10:08:50.122Z,98126.63
2022-11-03T10:11:18.692Z,98128.44
2022-11-03T10:13:48.858Z,98123.03
2022-11-03T10:16:18.666Z,98120.00
2022-11-03T10:18:48.224Z,98116.34
2022-11-03T10:21:17.234Z,98120.44
2022-11-03T10:23:45.200Z,98098.00
2022-11-03T10:26:16.286Z,98097.75
2022-11-03T10:28:58.262Z,98107.31
2022-11-03T10:31:32.654Z,98091.47
2022-11-03T10:34:01.989Z,98097.16
2022-11-03T10:36:30.900Z,98092.56
2022-11-03T10:39:21.266Z,98092.16
2022-11-03T10:41:56.434Z,98079.34
2022-11-03T10:44:26.765Z,98069.47
2022-11-03T10:46:58.539Z,98067.22
2022-11-03T10:49:28.281Z,98062.94
2022-11-03T10:52:00.857Z,98064.19
2022-11-03T10:54:29.585Z,98050.47
2022-11-03T10:56:58.178Z,98042.19
2022-11-03T10:59:32.125Z,98042.38
2022-11-03T11:02:00.892Z,98040.63
2022-11-03T11:04:30.485Z,98036.22
2022-11-03T11:06:58.474Z,98032.59
2022-11-03T11:09:27.457Z,98024.28
2022-11-03T11:12:02.548Z,98020.78
2022-11-03T11:14:39.124Z,98007.69
2022-11-03T11:17:07.195Z,97992.59
2022-11-03T11:19:52.387Z,98001.00
2022-11-03T11:22:23.259Z,97997.47
2022-11-03T11:24:59.059Z,97989.22
2022-11-03T11:27:45.845Z,97976.75
2022-11-03T11:30:28.796Z,97977.28
2022-11-03T11:32:59.938Z,97980.94
2022-11-03T11:35:46.829Z,97971.13
2022-11-03T11:38:33.473Z,97955.75
2022-11-03T11:41:02.814Z,97958.63
2022-11-03T11:43:31.275Z,97943.75
2022-11-03T11:46:18.150Z,97951.03
2022-11-03T11:48:46.262Z,97947.69
2022-11-03T11:51:14.803Z,97930.69
2022-11-03T11:54:17.020Z,97934.50
2022-11-03T11:56:48.569Z,97923.75
2022-11-03T11:59:22.982Z,97921.06
2022-11-03T12:01:56.583Z,97913.03
2022-11-03T12:04:26.121Z,97912.19
2022-11-03T12:06:55.677Z,97898.41
2022-11-03T12:09:24.767Z,97901.69
2022-11-03T12:11:56.466Z,97912.03
2022-11-03T12:14:33.693Z,97900.03
2022-11-03T12:17:16.819Z,97896.59
2022-11-03T12:19:45.834Z,97888.38
2022-11-03T12:22:33.855Z,97882.47
2022-11-03T12:25:03.884Z,97874.13
2022-11-03T12:27:44.009Z,97872.03
2022-11-03T12:30:19.586Z,97867.38
2022-11-03T12:32:48.049Z,97869.75
2022-11-03T12:35:16.116Z,97859.09
2022-11-03T12:37:44.107Z,97850.63
2022-11-03T12:40:13.043Z,97850.75
2022-11-03T12:42:44.868Z,97840.59
2022-11-03T12:45:14.201Z,97841.09
2022-11-03T12:47:44.595Z,97842.78
2022-11-03T12:50:13.059Z,97827.25
2022-11-03T12:52:41.018Z,97833.47
2022-11-03T12:55:09.581Z,97821.66
2022-11-03T12:57:37.585Z,97816.78
2022-11-03T13:00:07.897Z,97814.63
2022-11-03T13:02:36.126Z,97812.25
2022-11-03T13:05:04.498Z,97802.41
2022-11-03T13:07:34.877Z,97796.47
2022-11-03T13:10:04.392Z,97791.06
2022-11-03T13:12:32.400Z,97786.63
2022-11-03T13:15:01.086Z,97777.72
2022-11-03T13:17:40.390Z,97772.88
2022-11-03T13:20:18.618Z,97778.44
2022-11-03T13:22:46.894Z,97758.59
2022-11-03T13:25:15.093Z,97754.81
2022-11-03T13:27:43.132Z,97754.25
2022-11-03T13:30:11.997Z,97744.47
2022-11-03T13:32:42.066Z,97735.72
2022-11-03T13:35:13.749Z,97735.75
2022-11-03T13:37:42.200Z,97738.22
2022-11-03T13:40:35.751Z,97727.31
2022-11-03T13:43:01.074Z,97719.47
2022-11-03T13:45:29.104Z,97711.38
2022-11-03T13:50:46.644Z,97701.94
2022-11-03T13:56:06.920Z,97680.22
2022-11-03T14:01:24.984Z,97670.41
2022-11-03T14:06:42.489Z,97663.59
2022-11-03T14:09:10.590Z,97633.09
2022-11-03T14:11:56.139Z,97657.03
2022-11-03T14:14:24.123Z,97655.88
2022-11-03T14:16:52.207Z,97652.00
2022-11-03T14:19:21.615Z,97652.00
2022-11-03T14:21:49.682Z,97633.56
2022-11-03T14:24:17.948Z,97637.84
2022-11-03T14:26:47.999Z,97629.16
2022-11-03T14:29:16.022Z,97617.00
2022-11-03T14:31:44.027Z,97612.16
2022-11-03T14:34:12.025Z,97621.34
2022-11-03T14:36:42.055Z,97612.00
2022-11-03T14:39:10.242Z,97604.56
2022-11-03T14:41:56.040Z,97601.81
2022-11-03T14:44:24.125Z,97608.00
2022-11-03T14:46:54.213Z,97597.41
2022-11-03T14:49:22.506Z,97588.50
2022-11-03T14:51:52.073Z,97570.75
2022-11-03T14:54:20.099Z,97573.63
2022-11-03T14:56:50.564Z,97572.22
2022-11-03T14:59:18.642Z,97580.28
2022-11-03T15:01:47.164Z,97563.41
2022-11-03T15:04:15.350Z,97566.09
2022-11-03T15:06:43.357Z,97569.78
2022-11-03T15:09:14.605Z,97565.97
2022-11-03T15:11:45.373Z,97567.78
2022-11-03T15:14:13.697Z,97551.59
2022-11-03T15:16:41.773Z,97542.53
2022-11-03T15:19:11.896Z,97537.25
2022-11-03T15:21:39.875Z,97538.03
2022-11-03T15:26:57.705Z,97533.84
2022-11-03T15:29:25.879Z,97527.22
2022-11-03T15:31:53.864Z,97520.19
2022-11-03T15:34:23.969Z,97513.75
2022-11-03T15:36:51.979Z,97508.41
2022-11-03T15:39:20.232Z,97503.25
2022-11-03T15:41:48.210Z,97501.88
2022-11-03T15:44:17.567Z,97502.91
2022-11-03T15:46:45.534Z,97503.88
2022-11-03T15:49:13.566Z,97498.41
2022-11-03T15:51:41.535Z,97485.88
2022-11-03T15:54:09.549Z,97475.41
2022-11-03T15:56:37.540Z,97459.06
2022-11-03T15:59:07.916Z,97455.03
2022-11-03T16:01:37.875Z,97436.63
2022-11-03T16:04:06.227Z,97436.50
2022-11-03T16:07:01.615Z,97421.34
2022-11-03T16:09:23.181Z,97421.00
2022-11-03T16:11:51.477Z,97426.56
2022-11-03T16:14:19.848Z,97425.53
2022-11-03T16:16:49.450Z,97425.09
2022-11-03T16:19:17.804Z,97420.22
2022-11-03T16:21:46.029Z,97412.59
2022-11-03T16:24:16.344Z,97399.09
2022-11-03T16:26:44.631Z,97396.53
2022-11-03T16:29:12.901Z,97386.94
2022-11-03T16:31:41.195Z,97402.41
2022-11-03T16:34:10.897Z,97394.81
2022-11-03T16:36:39.122Z,97385.59
2022-11-03T16:39:07.394Z,97389.81
2022-11-03T16:41:35.638Z,97387.84
2022-11-03T16:44:03.997Z,97400.78
2022-11-03T16:46:34.373Z,97395.78
2022-11-03T16:49:02.635Z,97402.13
2022-11-03T16:51:32.261Z,97409.50
2022-11-03T16:54:00.492Z,97401.28
2022-11-03T16:56:28.746Z,97399.94
2022-11-03T16:58:57.033Z,97401.59
2022-11-03T17:01:25.190Z,97398.38
2022-11-03T17:03:55.591Z,97386.69
2022-11-03T17:06:23.576Z,97402.56
2022-11-03T17:08:53.800Z,97401.09
2022-11-03T17:11:35.899Z,97408.69
2022-11-03T17:14:04.847Z,97407.47
2022-11-03T17:16:33.105Z,97399.66
2022-11-03T17:19:01.050Z,97401.13
2022-11-03T17:21:31.849Z,97418.94
2022-11-03T17:24:01.321Z,97408.66
2022-11-03T17:26:38.910Z,97403.13
2022-11-03T17:29:16.416Z,97423.22
2022-11-03T17:31:44.486Z,97403.09
2022-11-03T17:34:12.951Z,97401.06
2022-11-03T17:36:41.234Z,97385.09
2022-11-03T17:39:13.816Z,97357.63
2022-11-03T17:41:41.825Z,97361.00
2022-11-03T17:44:10.989Z,97355.25
2022-11-03T17:46:39.107Z,97372.72
2022-11-03T17:49:09.522Z,97366.53
2022-11-03T17:51:41.646Z,97362.97
2022-11-03T17:54:13.584Z,97352.41
2022-11-03T17:56:41.551Z,97368.69
2022-11-03T17:59:10.142Z,97355.16
2022-11-03T18:01:38.252Z,97346.69
2022-11-03T18:04:11.293Z,97336.94
2022-11-03T18:06:42.304Z,97335.06
2022-11-03T18:09:11.698Z,97324.47
2022-11-03T18:11:58.704Z,97321.19
2022-11-03T18:14:27.987Z,97316.59
2022-11-03T18:16:56.250Z,97311.50
2022-11-03T18:19:26.666Z,97298.59
2022-11-03T18:21:54.615Z,97314.34
2022-11-03T18:24:23.950Z,97313.91
2022-11-03T18:26:54.302Z,97314.81
2022-11-03T18:29:24.398Z,97338.09
2022-11-03T18:31:52.376Z,97333.28
2022-11-03T18:34:21.971Z,97340.69
2022-11-03T18:36:50.033Z,97335.28
2022-11-03T18:39:20.412Z,97341.31
2022-11-03T18:41:49.762Z,97333.53
2022-11-03T18:44:19.484Z,97338.13
2022-11-03T18:46:47.602Z,97328.31
2022-11-03T18:49:15.775Z,97318.09
2022-11-03T18:51:45.770Z,97319.63
2022-11-03T18:54:15.213Z,97335.56
2022-11-03T18:56:43.332Z,97332.22
2022-11-03T18:59:18.949Z,97332.41
2022-11-03T19:01:47.203Z,97331.47
2022-11-03T19:04:15.859Z,97315.34
2022-11-03T19:06:44.396Z,97306.78
2022-11-03T19:09:14.286Z,97298.44
2022-11-03T19:11:43.142Z,97298.72
2022-11-03T19:14:14.411Z,97285.44
2022-11-03T19:17:02.059Z,97275.19
2022-11-03T19:19:32.617Z,97270.63
2022-11-03T19:22:00.689Z,97259.94
2022-11-03T19:24:28.755Z,97253.66
2022-11-03T19:26:58.096Z,97249.94
2022-11-03T19:29:29.875Z,97255.69
2022-11-03T19:31:59.402Z,97269.50
2022-11-03T19:34:28.870Z,97267.56
2022-11-03T19:36:57.785Z,97267.63
2022-11-03T19:39:27.922Z,97252.00
2022-11-03T19:42:14.189Z,97262.19
2022-11-03T19:44:42.234Z,97264.47
2022-11-03T19:47:15.334Z,97241.63
2022-11-03T19:49:43.449Z,97241.44
2022-11-03T19:52:12.978Z,97236.13
2022-11-03T19:54:41.648Z,97230.44
2022-11-03T19:57:11.531Z,97228.59
2022-11-03T19:59:39.716Z,97226.16
2022-11-03T20:02:08.231Z,97228.06
2022-11-03T20:04:37.664Z,97234.41
2022-11-03T20:07:06.541Z,97234.00
2022-11-03T20:09:34.711Z,97229.34
2022-11-03T20:12:07.224Z,97228.16
2022-11-03T20:14:35.207Z,97231.63
2022-11-03T20:17:11.277Z,97239.72
2022-11-03T20:19:42.778Z,97242.06
2022-11-03T20:22:14.479Z,97238.19
2022-11-03T20:24:42.726Z,97229.78
2022-11-03T20:27:11.553Z,97236.16
2022-11-03T20:29:40.247Z,97223.75
2022-11-03T20:32:11.088Z,97222.44
2022-11-03T20:34:39.127Z,97219.06
2022-11-03T20:37:15.389Z,97226.00
2022-11-03T20:39:44.053Z,97223.03
2022-11-03T20:42:18.817Z,97223.56
2022-11-03T20:44:46.995Z,97206.25
2022-11-03T20:47:15.060Z,97207.91
2022-11-03T20:49:43.176Z,97216.41
2022-11-03T20:52:13.671Z,97226.69
2022-11-03T20:54:43.136Z,97227.19
2022-11-03T20:57:12.439Z,97220.69
2022-11-03T20:59:41.174Z,97222.22
2022-11-03T21:02:10.987Z,97219.78
2022-11-03T21:04:39.063Z,97213.94
2022-11-03T21:07:11.457Z,97212.72
2022-11-03T21:09:40.966Z,97222.41
2022-11-03T21:12:11.096Z,97209.66
2022-11-03T21:14:39.142Z,97206.97
2022-11-03T21:17:31.684Z,97204.59
2022-11-03T21:20:01.849Z,97208.38
2022-11-03T21:25:23.274Z,97213.47
2022-11-03T21:27:54.940Z,97225.03
2022-11-03T21:30:23.430Z,97232.06
2022-11-03T21:32:51.585Z,97242.34
2022-11-03T21:35:20.573Z,97230.47
2022-11-03T21:37:50.642Z,97273.53
2022-11-03T21:40:18.921Z,97281.56
2022-11-03T21:43:08.112Z,97270.25
2022-11-03T21:45:36.178Z,97257.75
2022-11-03T21:48:22.594Z,97262.28
2022-11-03T21:50:50.934Z,97276.63
2022-11-03T21:53:18.941Z,97275.50
2022-11-03T21:55:48.274Z,97274.97
2022-11-03T21:58:17.627Z,97268.69
2022-11-03T22:02:38.661Z,97276.84
2022-11-03T22:05:10.837Z,97281.47
2022-11-03T22:07:39.212Z,97283.00
2022-11-03T22:10:07.423Z,97290.31
2022-11-03T22:12:35.658Z,97290.13
2022-11-03T22:15:21.160Z,97298.28
2022-11-03T22:17:50.562Z,97299.31
2022-11-03T22:20:36.291Z,97318.19
2022-11-03T22:23:21.957Z,97323.94
2022-11-03T22:26:07.313Z,97330.59
2022-11-03T22:28:35.474Z,97334.38
2022-11-03T22:31:21.977Z,97317.16
2022-11-03T22:34:08.718Z,97334.16
2022-11-03T22:36:36.845Z,97345.75
2022-11-03T22:39:30.840Z,97362.59
2022-11-03T22:42:16.225Z,97378.88
2022-11-03T22:45:01.761Z,97379.78
2022-11-03T22:47:29.727Z,97379.56
2022-11-03T22:50:01.416Z,97392.59
2022-11-03T22:52:29.428Z,97387.50
2022-11-03T22:54:56.562Z,97394.44
2022-11-03T22:57:24.693Z,97396.03
2022-11-03T22:59:52.701Z,97387.16
2022-11-03T23:02:20.834Z,97407.34
2022-11-03T23:04:48.886Z,97407.75
2022-11-03T23:07:18.208Z,97397.94
2022-11-03T23:09:46.392Z,97393.84
2022-11-03T23:12:14.367Z,97413.09
2022-11-03T23:14:59.183Z,97419.06
2022-11-03T23:17:48.143Z,97415.97
2022-11-03T23:20:33.438Z,97436.81
2022-11-03T23:23:02.838Z,97445.91
2022-11-03T23:25:31.265Z,97440.94
2022-11-03T23:27:59.242Z,97418.31
2022-11-03T23:30:27.178Z,97398.75
2022-11-03T23:32:55.119Z,97398.59
2022-11-03T23:35:23.118Z,97399.44
2022-11-03T23:37:51.068Z,97394.34
2022-11-03T23:40:21.533Z,97396.44
2022-11-03T23:42:49.654Z,97398.16
2022-11-03T23:45:35.214Z,97406.91
2022-11-03T23:48:20.825Z,97407.94
2022-11-03T23:50:48.792Z,97409.03
2022-11-03T23:53:16.763Z,97411.81
2022-11-03T23:55:59.975Z,97408.38
2022-11-03T23:58:28.318Z,97421.75
